createdAt,value
2022-11-20T00:00:28.848Z,1.79
2022-11-20T00:02:57.739Z,1.82
2022-11-20T00:05:26.548Z,1.79
2022-11-20T00:07:56.115Z,1.66
2022-11-20T00:10:26.888Z,1.58
2022-11-20T00:12:55.869Z,1.60
2022-11-20T00:15:24.433Z,1.72
2022-11-20T00:17:53.062Z,1.73
2022-11-20T00:20:21.634Z,1.53
2022-11-20T00:22:50.436Z,1.55
2022-11-20T00:25:19.244Z,1.64
2022-11-20T00:27:54.183Z,1.43
2022-11-20T00:30:22.843Z,1.58
2022-11-20T00:32:51.541Z,1.68
2022-11-20T00:35:23.141Z,1.57
2022-11-20T00:37:51.783Z,1.43
2022-11-20T00:40:20.452Z,1.55
2022-11-20T00:42:50.770Z,1.41
2022-11-20T00:45:20.575Z,1.44
2022-11-20T00:47:48.864Z,1.64
2022-11-20T00:50:18.261Z,1.58
2022-11-20T00:52:47.009Z,1.66
2022-11-20T00:55:15.840Z,1.64
2022-11-20T00:57:44.931Z,1.55
2022-11-20T01:00:22.149Z,1.33
2022-11-20T01:02:51.111Z,1.60
2022-11-20T01:05:19.552Z,1.48
2022-11-20T01:07:49.400Z,1.63
2022-11-20T01:10:19.390Z,1.47
2022-11-20T01:13:08.507Z,1.58
2022-11-20T01:15:38.509Z,1.58
2022-11-20T01:18:08.394Z,1.56
2022-11-20T01:20:38.562Z,1.35
2022-11-20T01:23:09.146Z,1.18
2022-11-20T01:25:37.677Z,1.22
2022-11-20T01:28:06.113Z,1.25
2022-11-20T01:30:35.206Z,1.39
2022-11-20T01:33:06.792Z,1.13
2022-11-20T01:35:41.003Z,1.32
2022-11-20T01:38:14.039Z,1.17
2022-11-20T01:40:45.957Z,1.20
2022-11-20T01:43:22.102Z,1.01
2022-11-20T01:46:05.154Z,0.94
2022-11-20T01:48:41.016Z,1.09
2022-11-20T01:51:20.227Z,1.13
2022-11-20T01:53:50.554Z,1.00
2022-11-20T01:56:20.259Z,1.11
2022-11-20T01:58:56.632Z,1.20
2022-11-20T02:01:25.755Z,1.18
2022-11-20T02:03:56.975Z,1.00
2022-11-20T02:06:32.732Z,0.95
2022-11-20T02:09:05.489Z,0.89
2022-11-20T02:11:34.802Z,1.12
2022-11-20T02:14:04.404Z,1.06
2022-11-20T02:16:38.011Z,0.98
2022-11-20T02:19:27.147Z,0.83
2022-11-20T02:22:04.485Z,0.66
2022-11-20T02:24:37.024Z,1.02
2022-11-20T02:27:11.042Z,0.81
2022-11-20T02:29:44.546Z,0.91
2022-11-20T02:32:21.970Z,0.97
2022-11-20T02:34:51.256Z,0.92
2022-11-20T02:37:22.504Z,0.98
2022-11-20T02:39:54.469Z,1.01
2022-11-20T02:42:23.805Z,0.91
2022-11-20T02:44:58.635Z,0.78
2022-11-20T02:47:29.126Z,0.85
2022-11-20T02:49:57.657Z,0.84
2022-11-20T02:52:26.885Z,0.78
2022-11-20T02:54:58.649Z,0.94
2022-11-20T02:57:27.668Z,0.95
2022-11-20T02:59:56.942Z,1.01
2022-11-20T03:02:26.055Z,0.77
2022-11-20T03:04:55.037Z,0.85
2022-11-20T03:07:24.467Z,0.75
2022-11-20T03:09:55.693Z,0.94
2022-11-20T03:12:27.549Z,0.92
2022-11-20T03:14:57.162Z,0.81
2022-11-20T03:17:26.885Z,0.88
2022-11-20T03:19:56.732Z,0.81
2022-11-20T03:22:31.504Z,1.07
2022-11-20T03:25:00.239Z,1.03
2022-11-20T03:27:36.664Z,0.86
2022-11-20T03:30:06.573Z,0.84
2022-11-20T03:32:35.711Z,0.93
2022-11-20T03:35:04.967Z,0.77
2022-11-20T03:37:35.291Z,0.91
2022-11-20T03:40:04.283Z,0.96
2022-11-20T03:42:47.947Z,0.99
2022-11-20T03:45:18.872Z,0.88
2022-11-20T03:47:47.850Z,0.93
2022-11-20T03:50:17.879Z,0.90
2022-11-20T03:52:46.459Z,0.83
2022-11-20T03:55:15.151Z,0.82
2022-11-20T03:57:46.018Z,0.67
2022-11-20T04:00:16.707Z,0.93
2022-11-20T04:02:46.614Z,0.93
2022-11-20T04:05:17.701Z,0.94
2022-11-20T04:07:46.671Z,0.81
2022-11-20T04:10:16.495Z,0.82
2022-11-20T04:12:47.896Z,0.85
2022-11-20T04:15:17.067Z,0.88
2022-11-20T04:17:46.035Z,0.67
2022-11-20T04:20:16.075Z,0.74
2022-11-20T04:22:44.941Z,0.88
2022-11-20T04:25:13.824Z,0.91
2022-11-20T04:27:42.851Z,0.65
2022-11-20T04:30:14.889Z,0.64
2022-11-20T04:32:44.660Z,0.86
2022-11-20T04:35:13.402Z,0.73
2022-11-20T04:37:42.121Z,0.78
2022-11-20T04:40:12.391Z,0.70
2022-11-20T04:42:43.226Z,0.86
2022-11-20T04:45:13.756Z,0.83
2022-11-20T04:47:43.614Z,0.69
2022-11-20T04:50:13.077Z,0.74
2022-11-20T04:52:42.380Z,0.65
2022-11-20T04:55:11.504Z,0.70
2022-11-20T04:57:40.604Z,0.62
2022-11-20T05:00:19.310Z,0.74
2022-11-20T05:02:49.529Z,0.79
2022-11-20T05:05:18.705Z,0.79
2022-11-20T05:07:48.024Z,0.60
2022-11-20T05:10:18.262Z,0.83
2022-11-20T05:12:47.577Z,0.60
2022-11-20T05:15:18.390Z,0.79
2022-11-20T05:17:50.547Z,0.77
2022-11-20T05:20:20.586Z,0.75
2022-11-20T05:22:52.766Z,0.63
2022-11-20T05:25:22.140Z,0.50
2022-11-20T05:27:52.835Z,0.51
2022-11-20T05:30:23.569Z,0.61
2022-11-20T05:32:52.388Z,0.60
2022-11-20T05:35:20.755Z,0.62
2022-11-20T05:37:49.617Z,0.67
2022-11-20T05:40:19.332Z,0.69
2022-11-20T05:42:48.111Z,0.64
2022-11-20T05:45:18.951Z,0.59
2022-11-20T05:47:49.621Z,0.46
2022-11-20T05:50:19.947Z,0.53
2022-11-20T05:52:49.305Z,0.58
2022-11-20T05:55:18.737Z,0.50
2022-11-20T05:57:47.963Z,0.47
2022-11-20T06:00:18.427Z,0.56
2022-11-20T06:02:50.334Z,0.50
2022-11-20T06:05:18.798Z,0.54
2022-11-20T06:07:48.441Z,0.56
2022-11-20T06:10:17.434Z,0.48
2022-11-20T06:12:47.448Z,0.48
2022-11-20T06:15:16.604Z,0.50
2022-11-20T06:17:45.895Z,0.50
2022-11-20T06:20:18.399Z,0.36
2022-11-20T06:22:50.628Z,0.49
2022-11-20T06:25:19.582Z,0.49
2022-11-20T06:27:49.445Z,0.52
2022-11-20T06:30:19.137Z,0.50
2022-11-20T06:32:47.537Z,0.48
2022-11-20T06:35:21.934Z,0.37
2022-11-20T06:37:50.711Z,0.64
2022-11-20T06:40:20.250Z,0.64
2022-11-20T06:42:51.603Z,0.52
2022-11-20T06:45:20.374Z,0.68
2022-11-20T06:47:49.558Z,0.48
2022-11-20T06:50:22.135Z,0.63
2022-11-20T06:52:51.854Z,0.68
2022-11-20T06:55:20.362Z,0.73
2022-11-20T06:57:53.280Z,0.69
2022-11-20T07:00:26.424Z,0.58
2022-11-20T07:02:56.120Z,0.62
2022-11-20T07:05:30.238Z,0.68
2022-11-20T07:07:59.119Z,0.78
2022-11-20T07:10:27.789Z,0.71
2022-11-20T07:12:57.933Z,0.73
2022-11-20T07:15:28.176Z,0.75
2022-11-20T07:17:57.261Z,0.73
2022-11-20T07:20:30.235Z,0.64
2022-11-20T07:23:00.327Z,0.82
2022-11-20T07:25:31.802Z,0.68
2022-11-20T07:28:01.197Z,0.45
2022-11-20T07:30:31.079Z,0.20
2022-11-20T07:33:00.705Z,0.60
2022-11-20T07:35:33.958Z,0.33
2022-11-20T07:38:03.613Z,0.51
2022-11-20T07:40:32.068Z,0.14
2022-11-20T07:43:15.098Z,0.86
2022-11-20T07:51:38.239Z,1.06
2022-11-20T07:59:48.067Z,1.03
2022-11-20T08:02:25.160Z,0.93
2022-11-20T08:04:53.837Z,1.31
2022-11-20T08:08:34.238Z,1.59
2022-11-20T08:17:35.992Z,1.66
2022-11-20T08:22:56.763Z,1.96
2022-11-20T08:28:26.841Z,2.05
2022-11-20T08:31:06.614Z,2.26
2022-11-20T08:33:42.028Z,2.58
2022-11-20T08:36:12.193Z,2.43
2022-11-20T08:38:41.179Z,2.26
2022-11-20T08:41:29.973Z,2.44
2022-11-20T08:44:04.762Z,2.57
2022-11-20T08:46:38.086Z,2.35
2022-11-20T08:49:08.464Z,2.23
2022-11-20T08:51:49.559Z,1.82
2022-11-20T08:54:22.045Z,2.09
2022-11-20T08:56:56.173Z,2.65
2022-11-20T08:59:50.682Z,2.66
2022-11-20T09:02:15.018Z,2.76
2022-11-20T09:04:43.769Z,2.44
2022-11-20T09:07:12.718Z,2.86
2022-11-20T09:09:41.701Z,2.41
2022-11-20T09:12:10.670Z,2.97
2022-11-20T09:14:54.741Z,2.98
2022-11-20T09:17:28.384Z,2.73
2022-11-20T09:19:57.404Z,2.78
2022-11-20T09:22:25.775Z,3.05
2022-11-20T09:24:54.550Z,2.71
2022-11-20T09:27:25.083Z,2.90
2022-11-20T09:29:55.600Z,3.30
2022-11-20T09:32:24.788Z,3.50
2022-11-20T09:35:02.195Z,3.23
2022-11-20T09:37:32.417Z,3.39
2022-11-20T09:40:16.343Z,3.35
2022-11-20T09:49:55.627Z,3.49
2022-11-20T09:58:59.054Z,3.55
2022-11-20T10:01:57.277Z,3.92
2022-11-20T10:07:37.463Z,3.94
2022-11-20T10:10:11.931Z,3.63
2022-11-20T10:13:04.007Z,3.91
2022-11-20T10:15:52.303Z,4.06
2022-11-20T10:18:40.486Z,3.89
2022-11-20T10:21:18.903Z,3.98
2022-11-20T10:28:05.705Z,4.04
2022-11-20T10:30:40.834Z,4.40
2022-11-20T10:33:24.976Z,4.56
2022-11-20T10:36:20.108Z,4.96
2022-11-20T10:38:58.696Z,4.54
2022-11-20T10:41:37.101Z,4.53
2022-11-20T10:44:16.135Z,4.61
2022-11-20T10:46:49.368Z,5.13
2022-11-20T10:49:22.696Z,4.10
2022-11-20T10:52:19.401Z,4.61
2022-11-20T10:55:03.133Z,4.98
2022-11-20T10:57:55.756Z,4.97
2022-11-20T11:00:25.571Z,4.47
2022-11-20T11:06:12.110Z,4.79
2022-11-20T11:15:49.533Z,4.79
2022-11-20T11:24:41.661Z,5.43
2022-11-20T11:30:55.490Z,5.28
2022-11-20T11:33:28.550Z,5.50
2022-11-20T11:36:01.320Z,5.67
2022-11-20T11:38:50.884Z,5.45
2022-11-20T11:41:29.459Z,5.85
2022-11-20T11:44:24.088Z,5.39
2022-11-20T11:46:59.946Z,5.57
2022-11-20T11:49:29.242Z,4.82
2022-11-20T11:52:16.364Z,5.29
2022-11-20T11:54:55.560Z,5.43
2022-11-20T11:57:38.231Z,4.96
2022-11-20T12:00:32.591Z,5.46
2022-11-20T12:03:17.482Z,5.79
2022-11-20T12:05:59.590Z,5.56
2022-11-20T12:08:36.025Z,5.64
2022-11-20T12:11:16.285Z,5.33
2022-11-20T12:13:56.676Z,5.86
2022-11-20T12:16:27.157Z,5.92
2022-11-20T12:19:03.199Z,6.28
2022-11-20T12:21:45.746Z,5.73
2022-11-20T12:49:41.640Z,5.69
2022-11-20T13:02:01.266Z,5.74
2022-11-20T13:04:58.811Z,5.56
2022-11-20T13:07:30.674Z,4.98
2022-11-20T13:10:04.312Z,5.80
2022-11-20T13:29:06.687Z,5.45
2022-11-20T13:47:52.527Z,5.52
2022-11-20T13:54:43.695Z,5.12
2022-11-20T13:58:07.244Z,4.99
2022-11-20T14:00:59.439Z,5.82
2022-11-20T14:07:27.015Z,5.43
2022-11-20T14:15:46.030Z,5.52
2022-11-20T14:21:11.292Z,5.69
2022-11-20T14:23:41.698Z,5.55
2022-11-20T14:26:19.823Z,5.25
2022-11-20T14:31:54.987Z,5.84
2022-11-20T14:34:35.211Z,5.99
2022-11-20T14:37:16.829Z,5.92
2022-11-20T14:40:08.731Z,5.69
2022-11-20T15:20:35.398Z,5.44
2022-11-20T15:23:05.078Z,5.58
2022-11-20T15:25:49.646Z,5.42
2022-11-20T15:31:28.217Z,5.44
2022-11-20T15:34:13.221Z,5.93
2022-11-20T15:37:00.738Z,5.37
2022-11-20T15:39:33.721Z,5.94
2022-11-20T15:42:03.015Z,5.81
2022-11-20T15:44:32.148Z,5.39
2022-11-20T15:47:00.473Z,5.70
2022-11-20T15:49:31.967Z,5.49
2022-11-20T15:52:03.301Z,5.53
2022-11-20T15:54:38.208Z,5.44
2022-11-20T15:57:08.918Z,5.98
2022-11-20T15:59:43.274Z,5.53
2022-11-20T16:02:24.722Z,5.84
2022-11-20T16:19:54.068Z,6.28
2022-11-20T16:33:20.048Z,5.90
2022-11-20T16:39:06.777Z,6.53
2022-11-20T16:48:17.867Z,6.35
2022-11-20T17:13:47.312Z,6.84
2022-11-20T17:16:36.047Z,6.59
2022-11-20T17:19:06.534Z,6.72
2022-11-20T17:21:45.307Z,6.78
2022-11-20T17:33:12.412Z,6.49
2022-11-20T17:35:46.323Z,6.65
2022-11-20T17:38:15.799Z,6.55
2022-11-20T17:40:47.015Z,6.71
2022-11-20T17:43:17.785Z,6.58
2022-11-20T17:49:01.573Z,7.12
2022-11-20T17:51:42.960Z,6.93
2022-11-20T17:54:33.011Z,6.84
2022-11-20T18:00:10.173Z,7.21
2022-11-20T18:03:05.348Z,6.92
2022-11-20T18:09:34.425Z,6.97
2022-11-20T18:12:18.916Z,6.95
2022-11-20T18:29:36.449Z,6.63
2022-11-20T18:32:08.594Z,6.50
2022-11-20T18:34:53.711Z,6.32
2022-11-20T18:43:14.306Z,7.07
2022-11-20T18:45:43.903Z,7.21
2022-11-20T18:48:13.752Z,7.21
2022-11-20T18:50:44.535Z,7.15
2022-11-20T18:53:15.380Z,7.12
2022-11-20T18:58:35.258Z,6.84
2022-11-20T19:04:18.261Z,7.03
2022-11-20T19:06:53.156Z,6.95
2022-11-20T19:09:25.669Z,6.59
2022-11-20T19:11:59.520Z,7.00
2022-11-20T19:14:34.509Z,6.70
2022-11-20T19:17:05.934Z,6.68
2022-11-20T19:22:35.443Z,7.21
2022-11-20T19:25:09.081Z,7.25
2022-11-20T19:30:28.453Z,7.05
2022-11-20T19:33:14.893Z,7.09
2022-11-20T19:35:55.660Z,7.28
2022-11-20T19:38:27.941Z,7.13
2022-11-20T19:40:59.133Z,7.23
2022-11-20T19:43:29.558Z,7.25
2022-11-20T19:46:22.874Z,7.13
2022-11-20T19:51:54.940Z,6.97
2022-11-20T19:54:44.934Z,7.12
2022-11-20T19:57:33.890Z,7.25
2022-11-20T20:00:29.571Z,7.24
2022-11-20T20:05:57.903Z,7.25
2022-11-20T20:08:43.748Z,7.24
2022-11-20T20:11:20.612Z,6.75
2022-11-20T20:16:47.399Z,6.82
2022-11-20T20:22:11.883Z,7.34
2022-11-20T20:24:50.266Z,7.15
2022-11-20T20:33:13.819Z,7.06
2022-11-20T20:36:03.102Z,7.00
2022-11-20T20:38:41.439Z,7.09
2022-11-20T20:41:14.534Z,7.14
2022-11-20T20:46:50.350Z,6.71
2022-11-20T20:49:27.052Z,6.84
2022-11-20T20:52:16.555Z,7.02
2022-11-20T20:54:45.622Z,7.13
2022-11-20T20:57:14.528Z,6.94
2022-11-20T20:59:48.720Z,6.95
2022-11-20T21:02:23.169Z,7.15
2022-11-20T21:05:01.489Z,7.13
2022-11-20T21:07:32.908Z,6.76
2022-11-20T21:10:02.190Z,6.72
2022-11-20T21:12:31.631Z,7.09
2022-11-20T21:15:05.342Z,6.56
2022-11-20T21:17:34.532Z,6.88
2022-11-20T21:20:23.487Z,6.85
2022-11-20T21:22:53.238Z,6.97
2022-11-20T21:25:33.761Z,6.70
2022-11-20T21:28:18.617Z,6.88
2022-11-20T21:30:49.367Z,7.02
2022-11-20T21:36:17.515Z,7.07
2022-11-20T21:38:51.803Z,7.00
2022-11-20T21:41:25.564Z,7.03
2022-11-20T21:44:29.678Z,7.06
2022-11-20T21:46:47.839Z,7.11
2022-11-20T21:49:18.417Z,7.17
2022-11-20T21:51:56.059Z,6.95
2022-11-20T21:54:29.000Z,7.18
2022-11-20T21:57:00.084Z,7.20
2022-11-20T21:59:31.014Z,7.16
2022-11-20T22:02:02.371Z,7.22
2022-11-20T22:04:38.212Z,7.22
2022-11-20T22:07:09.242Z,7.16
2022-11-20T22:09:54.501Z,7.18
2022-11-20T22:12:28.090Z,7.21
2022-11-20T22:14:56.736Z,7.26
2022-11-20T22:17:39.119Z,7.14
2022-11-20T22:20:14.956Z,7.17
2022-11-20T22:22:54.158Z,7.16
2022-11-20T22:25:39.846Z,7.16
2022-11-20T22:28:11.063Z,7.21
2022-11-20T22:30:40.901Z,7.10
2022-11-20T22:33:13.890Z,7.11
2022-11-20T22:35:58.616Z,7.04
2022-11-20T22:38:39.549Z,7.05
2022-11-20T22:41:17.167Z,7.02
2022-11-20T22:43:47.947Z,7.00
2022-11-20T22:46:19.056Z,7.00
2022-11-20T22:48:53.098Z,7.06
2022-11-20T22:51:25.827Z,7.02
2022-11-20T22:53:55.690Z,7.23
2022-11-20T22:56:27.245Z,7.15
2022-11-20T22:58:57.024Z,7.20
2022-11-20T23:01:28.384Z,6.80
2022-11-20T23:06:46.789Z,7.35
2022-11-20T23:12:07.110Z,7.16
2022-11-20T23:14:37.594Z,7.29
2022-11-20T23:17:07.478Z,7.19
2022-11-20T23:19:39.773Z,7.20
2022-11-20T23:22:18.290Z,7.14
2022-11-20T23:24:46.926Z,7.22
2022-11-20T23:27:20.000Z,7.13
2022-11-20T23:32:35.386Z,6.96
2022-11-20T23:35:04.236Z,7.11
2022-11-20T23:37:33.330Z,6.96
2022-11-20T23:40:05.680Z,6.90
2022-11-20T23:42:36.518Z,6.72
2022-11-20T23:45:05.884Z,6.97
2022-11-20T23:47:34.737Z,6.94
2022-11-20T23:50:03.233Z,7.04
2022-11-20T23:52:32.618Z,6.88
2022-11-20T23:55:01.120Z,6.85
2022-11-20T23:57:30.322Z,6.49
